Weather at Gibraltar Airport

Public forecast

Using degrees Celsius for public forecast. Weather courtesy of forecast.io.

Current aviation weather report (METAR) for Gibraltar Airport

Report is more than 6 hours old.

2022/11/14 15:20 (retrieved 2 years ago)

LXGB 141520Z 27012KT 9999 FEW030 SCT250 22/14 Q1019 NOSIG

Closest aviation forecast (TAF) to Gibraltar Airport

Forecast is more than 12 hours old.

Closest forecast is Ceuta Heliport, 15.7 nm (29.0 km) S.

2023/02/22 15:00 (retrieved 1 year ago)

TAF GECE 221400Z 2215/2315 29012KT 9000 NSC TX16/2313Z TN11/2307Z PROB30 TEMPO 2215/2222 29015G25KT